Weather reports worldwide

Advertisment
Reggio Calabria, Italy (16422): temperature & dewpoint: 16.08.2019 20:00:00 - 22.08.2019 20:00:00 (CEST)Reggio Calabria, Italy (16422): wind speed: 16.08.2019 20:00:00 - 22.08.2019 20:00:00 (CEST)Reggio Calabria, Italy (16422): wind direction: 16.08.2019 20:00:00 - 22.08.2019 20:00:00 (CEST)Reggio Calabria, Italy (16422): reduced air pressure: 16.08.2019 20:00:00 - 22.08.2019 20:00:00 (CEST)Reggio Calabria, Italy (16422): visibility: 16.08.2019 20:00:00 - 22.08.2019 20:00:00 (CEST)
Date & Time tt [°C] td [°C] ff [km/h] ff [kn] dd ppp [hPa] vv [km]
22.08.2019 20:00:00 28,0 22,0 4 2 W - 10
22.08.2019 19:00:00 29,0 23,0 8 4 WNW - 10
22.08.2019 18:00:00 29,0 24,0 8 4 WSW - 10
22.08.2019 17:00:00 29,0 22,0 5 3 WSW - 10
22.08.2019 16:00:00 31,0 21,0 8 4 - - 10
22.08.2019 15:00:00 31,0 21,0 9 5 W - 10
22.08.2019 14:00:00 31,0 20,0 9 5 SW - 10
22.08.2019 13:00:00 32,0 20,0 9 5 - - 10
22.08.2019 12:00:00 30,0 22,0 21 11 N - 10
22.08.2019 11:00:00 29,0 22,0 22 12 NNW - 10
22.08.2019 10:00:00 29,0 22,0 21 11 NNW - 10
22.08.2019 09:00:00 28,0 22,0 22 12 N - 10
22.08.2019 08:00:00 27,0 21,0 18 10 N - 10
22.08.2019 07:00:00 26,0 21,0 18 10 N - 10
22.08.2019 06:00:00 26,0 21,0 18 10 N - 10
22.08.2019 05:00:00 - - - - - - -
22.08.2019 04:00:00 - - - - - - -
22.08.2019 03:00:00 - - - - - - -
22.08.2019 02:00:00 - - - - - - -
22.08.2019 01:00:00 - - - - - - -
22.08.2019 00:00:00 26,0 22,0 13 7 N - 10
21.08.2019 23:00:00 26,0 22,0 18 10 N - 10
21.08.2019 22:00:00 27,0 23,0 22 12 N - 10
21.08.2019 21:00:00 27,0 23,0 24 13 N - 10
21.08.2019 20:00:00 27,0 21,0 22 12 N - 10
21.08.2019 19:00:00 28,0 21,0 26 14 N - 10
21.08.2019 18:00:00 29,0 22,0 28 15 N - 10
21.08.2019 17:00:00 30,0 21,0 29 16 N - 10
21.08.2019 16:00:00 31,0 20,0 31 17 N - 10
21.08.2019 15:00:00 32,0 20,0 29 16 N - 10
21.08.2019 14:00:00 31,0 22,0 28 15 N - 10
21.08.2019 13:00:00 31,0 23,0 26 14 NNW - 10
21.08.2019 12:00:00 31,0 22,0 21 11 N - 10
21.08.2019 11:00:00 30,0 22,0 24 13 N - 10
21.08.2019 10:00:00 29,0 22,0 21 11 NNW - 10
21.08.2019 09:00:00 28,0 22,0 21 11 N - 10
21.08.2019 08:00:00 28,0 22,0 13 7 N - 10
21.08.2019 07:00:00 24,0 16,0 13 7 NE - 10
21.08.2019 06:00:00 23,0 15,0 9 5 NE - 10
21.08.2019 05:00:00 - - - - - - -
21.08.2019 04:00:00 - - - - - - -
21.08.2019 03:00:00 - - - - - - -
21.08.2019 02:00:00 - - - - - - -
21.08.2019 01:00:00 - - - - - - -
21.08.2019 00:00:00 24,0 20,0 5 3 ENE - 10
20.08.2019 23:00:00 25,0 21,0 4 2 E - 10
20.08.2019 22:00:00 25,0 21,0 8 4 SSE - 10
20.08.2019 21:00:00 26,0 21,0 11 6 SSW - 10
20.08.2019 20:00:00 26,0 21,0 16 9 SSW - 10
20.08.2019 19:00:00 28,0 22,0 13 7 SSW - 10
20.08.2019 18:00:00 28,0 23,0 22 12 SSW - 10
20.08.2019 17:00:00 29,0 22,0 24 13 SSW - 10
20.08.2019 16:00:00 30,0 23,0 24 13 SSW - 10
20.08.2019 15:00:00 30,0 23,0 29 16 SSW - 10
20.08.2019 14:00:00 30,0 22,0 34 18 SSW - 10
20.08.2019 13:00:00 30,0 22,0 26 14 SSW - 10
20.08.2019 12:00:00 29,0 22,0 16 9 SW - 10
20.08.2019 11:00:00 29,5 19,8 11 6 SW 1017,8 10
20.08.2019 10:00:00 29,0 20,0 15 8 NNW - 10
20.08.2019 09:00:00 28,0 21,0 11 6 N - 10
20.08.2019 08:00:00 26,7 17,5 8 4 NE 1017,0 10
20.08.2019 07:00:00 23,0 17,0 9 5 NE - 10
20.08.2019 06:00:00 23,0 15,0 9 5 NE - 10
20.08.2019 05:00:00 23,1 15,4 9 5 NE 1016,5 -
20.08.2019 04:00:00 - - - - - - -
20.08.2019 03:00:00 - - - - - - -
20.08.2019 02:00:00 23,5 15,8 9 5 NE 1016,8 -
20.08.2019 01:00:00 - - - - - - -
20.08.2019 00:00:00 24,0 17,0 8 4 NE - 10
19.08.2019 23:00:00 24,1 19,4 8 4 NE 1017,2 10
19.08.2019 22:00:00 26,0 21,0 4 2 - - 10
19.08.2019 21:00:00 26,0 22,0 9 5 S - 10
19.08.2019 20:00:00 26,6 21,4 11 6 SSW 1016,5 10
19.08.2019 19:00:00 28,0 21,0 15 8 SSW - 10
19.08.2019 18:00:00 28,0 22,0 16 9 SW - 10
19.08.2019 17:00:00 29,0 21,2 16 9 SSW 1016,5 10
19.08.2019 16:00:00 29,0 23,0 16 9 SW - 10
19.08.2019 15:00:00 29,0 22,0 16 9 SSW - 10
19.08.2019 14:00:00 29,7 21,7 15 8 SSW 1016,8 10
19.08.2019 13:00:00 30,0 21,0 15 8 SSW - 10
19.08.2019 12:00:00 30,0 19,0 11 6 SW - 10
19.08.2019 11:00:00 29,2 18,8 11 6 SW 1016,7 10
19.08.2019 10:00:00 28,0 18,0 8 4 WNW - 10
19.08.2019 09:00:00 28,0 14,0 8 4 NNW - 10
19.08.2019 08:00:00 27,0 12,0 2 1 N - 10
19.08.2019 07:00:00 22,0 14,0 5 3 ENE - 10
19.08.2019 06:00:00 22,0 14,0 4 2 E - 10
19.08.2019 05:00:00 - - - - - - -
19.08.2019 04:00:00 - - - - - - -
19.08.2019 03:00:00 - - - - - - -
19.08.2019 02:00:00 - - - - - - -
19.08.2019 01:00:00 - - - - - - -
19.08.2019 00:00:00 24,0 18,0 5 3 NE - 10
18.08.2019 23:00:00 25,0 19,0 5 3 E - 10
18.08.2019 22:00:00 27,0 21,0 5 3 S - 10
18.08.2019 21:00:00 26,0 21,0 11 6 SSW - 10
18.08.2019 20:00:00 27,0 20,0 13 7 SSW - 10
18.08.2019 19:00:00 28,0 19,0 15 8 SSW - 10
18.08.2019 18:00:00 29,0 19,0 15 8 SSW - 10
18.08.2019 17:00:00 29,0 17,0 13 7 SSW - 10
18.08.2019 16:00:00 30,0 19,0 15 8 SSW - 10
18.08.2019 15:00:00 29,0 19,0 15 8 S - 10
18.08.2019 14:00:00 29,0 21,0 13 7 SW - 10
18.08.2019 13:00:00 29,0 19,0 11 6 SSW - 10
18.08.2019 12:00:00 29,0 18,0 13 7 NNW - 10
18.08.2019 11:00:00 29,0 16,0 22 12 NW - 10
18.08.2019 10:00:00 28,0 19,0 24 13 NW - 10
18.08.2019 09:00:00 27,0 18,0 11 6 NNW - 10
18.08.2019 08:00:00 26,0 7,0 4 2 NE - 10
18.08.2019 07:00:00 23,0 10,0 5 3 NE - 10
18.08.2019 06:00:00 22,0 14,0 8 4 NE - 10
18.08.2019 05:00:00 - - - - - - -
18.08.2019 04:00:00 - - - - - - -
18.08.2019 03:00:00 - - - - - - -
18.08.2019 02:00:00 - - - - - - -
18.08.2019 01:00:00 - - - - - - -
18.08.2019 00:00:00 24,0 11,0 5 3 NNE - 10
17.08.2019 23:00:00 25,0 18,0 11 6 N - 10
17.08.2019 22:00:00 26,0 18,0 13 7 N - 10
17.08.2019 21:00:00 26,0 19,0 18 10 NNW - 10
17.08.2019 20:00:00 27,0 19,0 21 11 NNW - 10
17.08.2019 19:00:00 28,0 17,0 16 9 NNW - 10
17.08.2019 18:00:00 29,0 17,0 28 15 N - 10
17.08.2019 17:00:00 29,0 17,0 26 14 N - 10
17.08.2019 16:00:00 29,0 18,0 26 14 N - 10
17.08.2019 15:00:00 29,0 17,0 16 9 NNW - 10
17.08.2019 14:00:00 31,0 18,0 16 9 NNW - 10
17.08.2019 13:00:00 30,0 17,0 16 9 NNW - 10
17.08.2019 12:00:00 30,0 12,0 15 8 NW - 10
17.08.2019 11:00:00 28,0 18,0 15 8 NNW - 10
17.08.2019 10:00:00 29,0 18,0 16 9 NNW - 10
17.08.2019 09:00:00 28,0 15,0 13 7 NW - 10
17.08.2019 08:00:00 26,0 5,0 9 5 NE - 10
17.08.2019 07:00:00 24,0 3,0 8 4 ENE - 10
17.08.2019 06:00:00 24,0 7,0 9 5 NE - 10
17.08.2019 05:00:00 - - - - - - -
17.08.2019 04:00:00 - - - - - - -
17.08.2019 03:00:00 - - - - - - -
17.08.2019 02:00:00 - - - - - - -
17.08.2019 01:00:00 - - - - - - -
17.08.2019 00:00:00 16,0 12,0 11 6 NNW - 10
16.08.2019 23:00:00 - - - - - - -
16.08.2019 22:00:00 - - - - - - -
16.08.2019 21:00:00 26,0 18,0 15 8 N - 10
16.08.2019 20:00:00 26,0 17,0 18 10 N - 10

tt = temperature
td = dewpoint
ff = wind speed
dd = wind direction
ppp = reduced air pressure
vv = visibility

Next stations